sensor_id;sensor_type;location;lat;lon;timestamp;P1;durP1;ratioP1;P2;durP2;ratioP2
22476;SDS011;65006;51.698;-0.292;2023-04-15T00:00:49;9.23;;;4.30;;
22476;SDS011;65006;51.698;-0.292;2023-04-15T00:05:42;7.63;;;4.45;;
22476;SDS011;65006;51.698;-0.292;2023-04-15T00:08:09;9.23;;;5.50;;
22476;SDS011;65006;51.698;-0.292;2023-04-15T00:10:35;12.85;;;6.20;;
22476;SDS011;65006;51.698;-0.292;2023-04-15T00:13:01;11.23;;;5.85;;
22476;SDS011;65006;51.698;-0.292;2023-04-15T00:15:28;12.32;;;5.80;;
22476;SDS011;65006;51.698;-0.292;2023-04-15T00:17:54;13.68;;;6.20;;
22476;SDS011;65006;51.698;-0.292;2023-04-15T00:20:20;13.15;;;5.85;;
22476;SDS011;65006;51.698;-0.292;2023-04-15T00:22:46;15.15;;;6.90;;
22476;SDS011;65006;51.698;-0.292;2023-04-15T00:25:12;13.10;;;5.72;;
22476;SDS011;65006;51.698;-0.292;2023-04-15T00:27:39;14.35;;;6.40;;
22476;SDS011;65006;51.698;-0.292;2023-04-15T00:30:06;9.43;;;5.55;;
22476;SDS011;65006;51.698;-0.292;2023-04-15T00:32:33;11.88;;;5.72;;
22476;SDS011;65006;51.698;-0.292;2023-04-15T00:35:00;9.45;;;5.40;;
22476;SDS011;65006;51.698;-0.292;2023-04-15T00:37:28;8.55;;;5.45;;
22476;SDS011;65006;51.698;-0.292;2023-04-15T00:39:54;10.15;;;5.45;;
22476;SDS011;65006;51.698;-0.292;2023-04-15T00:42:20;9.40;;;5.15;;
22476;SDS011;65006;51.698;-0.292;2023-04-15T00:44:46;8.02;;;4.50;;
22476;SDS011;65006;51.698;-0.292;2023-04-15T00:47:12;8.63;;;4.70;;
22476;SDS011;65006;51.698;-0.292;2023-04-15T00:49:39;9.25;;;4.82;;
22476;SDS011;65006;51.698;-0.292;2023-04-15T00:52:06;10.05;;;4.70;;
22476;SDS011;65006;51.698;-0.292;2023-04-15T00:54:32;8.98;;;5.10;;
22476;SDS011;65006;51.698;-0.292;2023-04-15T00:56:58;7.82;;;4.60;;
22476;SDS011;65006;51.698;-0.292;2023-04-15T00:59:25;9.30;;;4.68;;
22476;SDS011;65006;51.698;-0.292;2023-04-15T01:01:51;8.20;;;4.43;;
22476;SDS011;65006;51.698;-0.292;2023-04-15T01:04:17;7.82;;;4.65;;
22476;SDS011;65006;51.698;-0.292;2023-04-15T01:06:43;7.43;;;4.78;;
22476;SDS011;65006;51.698;-0.292;2023-04-15T01:09:09;6.75;;;4.95;;
22476;SDS011;65006;51.698;-0.292;2023-04-15T01:14:01;8.18;;;4.65;;
22476;SDS011;65006;51.698;-0.292;2023-04-15T01:16:27;6.57;;;3.90;;
22476;SDS011;65006;51.698;-0.292;2023-04-15T01:18:53;5.47;;;3.70;;
22476;SDS011;65006;51.698;-0.292;2023-04-15T01:21:20;5.25;;;3.58;;
22476;SDS011;65006;51.698;-0.292;2023-04-15T01:23:46;6.63;;;2.97;;
22476;SDS011;65006;51.698;-0.292;2023-04-15T01:26:12;5.18;;;3.38;;
22476;SDS011;65006;51.698;-0.292;2023-04-15T01:28:39;4.22;;;2.70;;
22476;SDS011;65006;51.698;-0.292;2023-04-15T01:31:05;5.22;;;3.10;;
22476;SDS011;65006;51.698;-0.292;2023-04-15T01:35:57;6.50;;;2.75;;
22476;SDS011;65006;51.698;-0.292;2023-04-15T01:38:25;12.25;;;2.72;;
22476;SDS011;65006;51.698;-0.292;2023-04-15T01:40:51;7.53;;;3.03;;
22476;SDS011;65006;51.698;-0.292;2023-04-15T01:43:18;5.28;;;3.22;;
22476;SDS011;65006;51.698;-0.292;2023-04-15T01:45:44;3.85;;;2.75;;
22476;SDS011;65006;51.698;-0.292;2023-04-15T01:48:10;4.97;;;3.00;;
22476;SDS011;65006;51.698;-0.292;2023-04-15T01:50:37;10.52;;;3.50;;
22476;SDS011;65006;51.698;-0.292;2023-04-15T01:53:03;7.03;;;3.25;;
22476;SDS011;65006;51.698;-0.292;2023-04-15T01:55:29;4.93;;;3.05;;
22476;SDS011;65006;51.698;-0.292;2023-04-15T01:57:55;5.20;;;2.88;;
22476;SDS011;65006;51.698;-0.292;2023-04-15T02:00:21;6.95;;;3.45;;
22476;SDS011;65006;51.698;-0.292;2023-04-15T02:02:48;4.72;;;2.83;;
22476;SDS011;65006;51.698;-0.292;2023-04-15T02:05:14;7.05;;;3.30;;
22476;SDS011;65006;51.698;-0.292;2023-04-15T02:07:41;4.40;;;3.03;;
22476;SDS011;65006;51.698;-0.292;2023-04-15T02:10:07;6.07;;;3.42;;
22476;SDS011;65006;51.698;-0.292;2023-04-15T02:12:34;7.78;;;3.70;;
22476;SDS011;65006;51.698;-0.292;2023-04-15T02:15:00;4.57;;;3.42;;
22476;SDS011;65006;51.698;-0.292;2023-04-15T02:17:26;6.40;;;3.00;;
22476;SDS011;65006;51.698;-0.292;2023-04-15T02:19:52;5.07;;;3.40;;
22476;SDS011;65006;51.698;-0.292;2023-04-15T02:22:20;10.50;;;4.10;;
22476;SDS011;65006;51.698;-0.292;2023-04-15T02:24:46;3.90;;;3.20;;
22476;SDS011;65006;51.698;-0.292;2023-04-15T02:27:16;8.15;;;3.75;;
22476;SDS011;65006;51.698;-0.292;2023-04-15T02:29:43;8.32;;;4.20;;
22476;SDS011;65006;51.698;-0.292;2023-04-15T02:32:09;8.25;;;3.60;;
22476;SDS011;65006;51.698;-0.292;2023-04-15T02:34:36;6.15;;;3.80;;
22476;SDS011;65006;51.698;-0.292;2023-04-15T02:37:05;6.20;;;3.63;;
22476;SDS011;65006;51.698;-0.292;2023-04-15T02:39:31;7.25;;;3.92;;
22476;SDS011;65006;51.698;-0.292;2023-04-15T02:41:57;5.43;;;3.72;;
22476;SDS011;65006;51.698;-0.292;2023-04-15T02:44:24;7.13;;;4.35;;
22476;SDS011;65006;51.698;-0.292;2023-04-15T02:49:18;6.60;;;4.13;;
22476;SDS011;65006;51.698;-0.292;2023-04-15T02:51:44;5.30;;;3.97;;
22476;SDS011;65006;51.698;-0.292;2023-04-15T02:54:17;7.85;;;4.45;;
22476;SDS011;65006;51.698;-0.292;2023-04-15T02:56:44;6.28;;;4.32;;
22476;SDS011;65006;51.698;-0.292;2023-04-15T02:59:10;7.05;;;4.43;;
22476;SDS011;65006;51.698;-0.292;2023-04-15T03:01:37;6.97;;;4.88;;
22476;SDS011;65006;51.698;-0.292;2023-04-15T03:04:03;7.55;;;4.78;;
22476;SDS011;65006;51.698;-0.292;2023-04-15T03:06:29;8.80;;;4.80;;
22476;SDS011;65006;51.698;-0.292;2023-04-15T03:08:55;7.45;;;4.72;;
22476;SDS011;65006;51.698;-0.292;2023-04-15T03:11:21;7.60;;;4.63;;
22476;SDS011;65006;51.698;-0.292;2023-04-15T03:13:47;8.57;;;4.97;;
22476;SDS011;65006;51.698;-0.292;2023-04-15T03:16:13;6.30;;;4.90;;
22476;SDS011;65006;51.698;-0.292;2023-04-15T03:18:39;7.22;;;5.03;;
22476;SDS011;65006;51.698;-0.292;2023-04-15T03:21:05;10.45;;;5.30;;
22476;SDS011;65006;51.698;-0.292;2023-04-15T03:23:31;10.25;;;5.22;;
22476;SDS011;65006;51.698;-0.292;2023-04-15T03:25:57;14.95;;;4.80;;
22476;SDS011;65006;51.698;-0.292;2023-04-15T03:28:23;10.68;;;5.32;;
22476;SDS011;65006;51.698;-0.292;2023-04-15T03:30:49;8.07;;;5.18;;
22476;SDS011;65006;51.698;-0.292;2023-04-15T03:33:15;9.88;;;4.95;;
22476;SDS011;65006;51.698;-0.292;2023-04-15T03:35:42;7.53;;;4.75;;
22476;SDS011;65006;51.698;-0.292;2023-04-15T03:38:07;10.45;;;5.15;;
22476;SDS011;65006;51.698;-0.292;2023-04-15T03:40:33;11.15;;;6.05;;
22476;SDS011;65006;51.698;-0.292;2023-04-15T03:43:00;8.90;;;5.35;;
22476;SDS011;65006;51.698;-0.292;2023-04-15T03:45:26;10.68;;;6.03;;
22476;SDS011;65006;51.698;-0.292;2023-04-15T03:47:52;9.48;;;5.93;;
22476;SDS011;65006;51.698;-0.292;2023-04-15T03:50:18;9.32;;;6.03;;
22476;SDS011;65006;51.698;-0.292;2023-04-15T03:52:44;9.57;;;6.03;;
22476;SDS011;65006;51.698;-0.292;2023-04-15T03:55:10;12.73;;;6.78;;
22476;SDS011;65006;51.698;-0.292;2023-04-15T03:57:36;13.27;;;6.00;;
22476;SDS011;65006;51.698;-0.292;2023-04-15T04:02:29;10.50;;;5.80;;
22476;SDS011;65006;51.698;-0.292;2023-04-15T04:04:55;10.23;;;6.13;;
22476;SDS011;65006;51.698;-0.292;2023-04-15T04:07:22;11.85;;;6.75;;
22476;SDS011;65006;51.698;-0.292;2023-04-15T04:09:48;10.68;;;5.38;;
22476;SDS011;65006;51.698;-0.292;2023-04-15T04:12:14;10.48;;;5.82;;
22476;SDS011;65006;51.698;-0.292;2023-04-15T04:14:40;10.57;;;6.68;;
22476;SDS011;65006;51.698;-0.292;2023-04-15T04:17:06;11.00;;;6.40;;
22476;SDS011;65006;51.698;-0.292;2023-04-15T04:19:32;12.27;;;6.50;;
22476;SDS011;65006;51.698;-0.292;2023-04-15T04:21:58;11.10;;;5.65;;
22476;SDS011;65006;51.698;-0.292;2023-04-15T04:24:24;12.85;;;6.95;;
22476;SDS011;65006;51.698;-0.292;2023-04-15T04:26:50;11.68;;;7.65;;
22476;SDS011;65006;51.698;-0.292;2023-04-15T04:29:16;8.82;;;5.82;;
22476;SDS011;65006;51.698;-0.292;2023-04-15T04:31:42;11.38;;;5.88;;
22476;SDS011;65006;51.698;-0.292;2023-04-15T04:34:08;9.90;;;5.60;;
22476;SDS011;65006;51.698;-0.292;2023-04-15T04:36:35;12.75;;;5.95;;
22476;SDS011;65006;51.698;-0.292;2023-04-15T04:39:01;8.23;;;4.80;;
22476;SDS011;65006;51.698;-0.292;2023-04-15T04:41:27;7.32;;;4.60;;
22476;SDS011;65006;51.698;-0.292;2023-04-15T04:46:19;7.45;;;4.50;;
22476;SDS011;65006;51.698;-0.292;2023-04-15T04:48:45;5.55;;;3.53;;
22476;SDS011;65006;51.698;-0.292;2023-04-15T04:51:11;8.75;;;3.95;;
22476;SDS011;65006;51.698;-0.292;2023-04-15T04:53:37;5.88;;;3.22;;
22476;SDS011;65006;51.698;-0.292;2023-04-15T04:56:03;5.70;;;3.85;;
22476;SDS011;65006;51.698;-0.292;2023-04-15T04:58:30;5.15;;;3.50;;
22476;SDS011;65006;51.698;-0.292;2023-04-15T05:00:56;5.95;;;3.17;;
22476;SDS011;65006;51.698;-0.292;2023-04-15T05:03:22;6.65;;;2.83;;
22476;SDS011;65006;51.698;-0.292;2023-04-15T05:05:48;6.57;;;3.17;;
22476;SDS011;65006;51.698;-0.292;2023-04-15T05:08:15;4.63;;;2.90;;
22476;SDS011;65006;51.698;-0.292;2023-04-15T05:10:41;3.05;;;2.58;;
22476;SDS011;65006;51.698;-0.292;2023-04-15T05:13:07;6.32;;;3.00;;
22476;SDS011;65006;51.698;-0.292;2023-04-15T05:15:33;5.03;;;2.70;;
22476;SDS011;65006;51.698;-0.292;2023-04-15T05:18:01;4.35;;;3.30;;
22476;SDS011;65006;51.698;-0.292;2023-04-15T05:20:27;4.30;;;2.70;;
22476;SDS011;65006;51.698;-0.292;2023-04-15T05:22:53;4.53;;;2.92;;
22476;SDS011;65006;51.698;-0.292;2023-04-15T05:25:19;3.08;;;2.40;;
22476;SDS011;65006;51.698;-0.292;2023-04-15T05:27:45;4.57;;;2.95;;
22476;SDS011;65006;51.698;-0.292;2023-04-15T05:30:11;4.13;;;2.85;;
22476;SDS011;65006;51.698;-0.292;2023-04-15T05:32:37;6.68;;;3.03;;
22476;SDS011;65006;51.698;-0.292;2023-04-15T05:35:03;4.75;;;2.45;;
22476;SDS011;65006;51.698;-0.292;2023-04-15T05:37:29;4.82;;;3.15;;
22476;SDS011;65006;51.698;-0.292;2023-04-15T05:39:55;3.90;;;3.05;;
22476;SDS011;65006;51.698;-0.292;2023-04-15T05:42:21;4.10;;;3.22;;
22476;SDS011;65006;51.698;-0.292;2023-04-15T05:44:47;3.92;;;3.10;;
22476;SDS011;65006;51.698;-0.292;2023-04-15T05:47:13;5.15;;;2.85;;
22476;SDS011;65006;51.698;-0.292;2023-04-15T05:49:39;3.75;;;2.70;;
22476;SDS011;65006;51.698;-0.292;2023-04-15T05:52:05;3.97;;;2.97;;
22476;SDS011;65006;51.698;-0.292;2023-04-15T05:54:31;4.53;;;3.00;;
22476;SDS011;65006;51.698;-0.292;2023-04-15T05:56:57;4.50;;;2.65;;
22476;SDS011;65006;51.698;-0.292;2023-04-15T05:59:23;5.28;;;3.58;;
22476;SDS011;65006;51.698;-0.292;2023-04-15T06:01:49;6.22;;;2.80;;
22476;SDS011;65006;51.698;-0.292;2023-04-15T06:04:16;4.75;;;3.28;;
22476;SDS011;65006;51.698;-0.292;2023-04-15T06:06:42;4.20;;;3.15;;
22476;SDS011;65006;51.698;-0.292;2023-04-15T06:09:08;6.15;;;3.28;;
22476;SDS011;65006;51.698;-0.292;2023-04-15T06:11:35;6.95;;;3.50;;
22476;SDS011;65006;51.698;-0.292;2023-04-15T06:14:01;5.63;;;3.50;;
22476;SDS011;65006;51.698;-0.292;2023-04-15T06:16:27;5.68;;;3.03;;
22476;SDS011;65006;51.698;-0.292;2023-04-15T06:18:53;8.18;;;3.47;;
22476;SDS011;65006;51.698;-0.292;2023-04-15T06:21:19;3.97;;;3.15;;
22476;SDS011;65006;51.698;-0.292;2023-04-15T06:23:45;7.68;;;3.53;;
22476;SDS011;65006;51.698;-0.292;2023-04-15T06:26:11;4.95;;;3.40;;
22476;SDS011;65006;51.698;-0.292;2023-04-15T06:28:37;8.50;;;3.83;;
22476;SDS011;65006;51.698;-0.292;2023-04-15T06:31:03;8.13;;;4.15;;
22476;SDS011;65006;51.698;-0.292;2023-04-15T06:33:30;9.95;;;4.32;;
22476;SDS011;65006;51.698;-0.292;2023-04-15T06:35:56;7.90;;;4.40;;
22476;SDS011;65006;51.698;-0.292;2023-04-15T06:38:22;7.72;;;4.20;;
22476;SDS011;65006;51.698;-0.292;2023-04-15T06:40:48;6.22;;;3.92;;
22476;SDS011;65006;51.698;-0.292;2023-04-15T06:43:14;7.35;;;4.28;;
22476;SDS011;65006;51.698;-0.292;2023-04-15T06:45:40;9.68;;;4.80;;
22476;SDS011;65006;51.698;-0.292;2023-04-15T06:48:06;6.80;;;4.13;;
22476;SDS011;65006;51.698;-0.292;2023-04-15T06:50:32;6.47;;;4.70;;
22476;SDS011;65006;51.698;-0.292;2023-04-15T06:52:59;7.18;;;4.78;;
22476;SDS011;65006;51.698;-0.292;2023-04-15T06:55:25;6.53;;;3.85;;
22476;SDS011;65006;51.698;-0.292;2023-04-15T06:57:51;6.85;;;4.47;;
22476;SDS011;65006;51.698;-0.292;2023-04-15T07:00:17;8.15;;;4.15;;
22476;SDS011;65006;51.698;-0.292;2023-04-15T07:05:10;10.75;;;4.20;;
22476;SDS011;65006;51.698;-0.292;2023-04-15T07:07:36;7.72;;;4.90;;
22476;SDS011;65006;51.698;-0.292;2023-04-15T07:10:02;7.00;;;4.07;;
22476;SDS011;65006;51.698;-0.292;2023-04-15T07:14:55;7.00;;;4.65;;
22476;SDS011;65006;51.698;-0.292;2023-04-15T07:17:21;7.38;;;4.53;;
22476;SDS011;65006;51.698;-0.292;2023-04-15T07:19:47;11.07;;;4.47;;
22476;SDS011;65006;51.698;-0.292;2023-04-15T07:22:13;5.90;;;3.75;;
22476;SDS011;65006;51.698;-0.292;2023-04-15T07:24:39;7.70;;;3.88;;
22476;SDS011;65006;51.698;-0.292;2023-04-15T07:27:05;5.93;;;3.65;;
22476;SDS011;65006;51.698;-0.292;2023-04-15T07:31:58;8.00;;;4.63;;
22476;SDS011;65006;51.698;-0.292;2023-04-15T07:34:24;9.38;;;4.00;;
22476;SDS011;65006;51.698;-0.292;2023-04-15T07:36:50;7.40;;;4.57;;
22476;SDS011;65006;51.698;-0.292;2023-04-15T07:39:17;10.85;;;4.28;;
22476;SDS011;65006;51.698;-0.292;2023-04-15T07:41:43;9.32;;;4.72;;
22476;SDS011;65006;51.698;-0.292;2023-04-15T07:44:09;10.48;;;4.40;;
22476;SDS011;65006;51.698;-0.292;2023-04-15T07:46:35;9.02;;;4.88;;
22476;SDS011;65006;51.698;-0.292;2023-04-15T07:49:02;7.30;;;4.45;;
22476;SDS011;65006;51.698;-0.292;2023-04-15T07:51:28;6.32;;;4.57;;
22476;SDS011;65006;51.698;-0.292;2023-04-15T07:53:54;7.35;;;4.78;;
22476;SDS011;65006;51.698;-0.292;2023-04-15T07:56:20;7.32;;;4.47;;
22476;SDS011;65006;51.698;-0.292;2023-04-15T07:58:46;8.27;;;5.13;;
22476;SDS011;65006;51.698;-0.292;2023-04-15T08:01:12;8.18;;;5.10;;
22476;SDS011;65006;51.698;-0.292;2023-04-15T08:03:38;12.20;;;5.68;;
22476;SDS011;65006;51.698;-0.292;2023-04-15T08:06:05;10.18;;;5.00;;
22476;SDS011;65006;51.698;-0.292;2023-04-15T08:08:31;9.60;;;5.15;;
22476;SDS011;65006;51.698;-0.292;2023-04-15T08:10:57;7.05;;;4.45;;
22476;SDS011;65006;51.698;-0.292;2023-04-15T08:13:23;9.48;;;4.57;;
22476;SDS011;65006;51.698;-0.292;2023-04-15T08:15:52;9.52;;;4.85;;
22476;SDS011;65006;51.698;-0.292;2023-04-15T08:18:18;9.35;;;4.05;;
22476;SDS011;65006;51.698;-0.292;2023-04-15T08:20:44;7.15;;;4.18;;
22476;SDS011;65006;51.698;-0.292;2023-04-15T08:23:10;6.55;;;4.63;;
22476;SDS011;65006;51.698;-0.292;2023-04-15T08:25:36;9.63;;;3.97;;
22476;SDS011;65006;51.698;-0.292;2023-04-15T08:28:06;8.15;;;4.35;;
22476;SDS011;65006;51.698;-0.292;2023-04-15T08:30:33;11.10;;;5.10;;
22476;SDS011;65006;51.698;-0.292;2023-04-15T08:32:59;5.97;;;3.90;;
22476;SDS011;65006;51.698;-0.292;2023-04-15T08:35:25;5.88;;;4.18;;
22476;SDS011;65006;51.698;-0.292;2023-04-15T08:37:51;8.60;;;4.50;;
22476;SDS011;65006;51.698;-0.292;2023-04-15T08:40:18;6.88;;;4.57;;
22476;SDS011;65006;51.698;-0.292;2023-04-15T08:42:46;8.02;;;4.60;;
22476;SDS011;65006;51.698;-0.292;2023-04-15T08:45:14;7.25;;;4.57;;
22476;SDS011;65006;51.698;-0.292;2023-04-15T08:50:08;4.95;;;3.88;;
22476;SDS011;65006;51.698;-0.292;2023-04-15T08:52:34;8.52;;;4.55;;
22476;SDS011;65006;51.698;-0.292;2023-04-15T08:55:01;7.43;;;4.63;;
22476;SDS011;65006;51.698;-0.292;2023-04-15T08:57:28;10.25;;;4.78;;
22476;SDS011;65006;51.698;-0.292;2023-04-15T08:59:55;10.23;;;5.00;;
22476;SDS011;65006;51.698;-0.292;2023-04-15T09:02:22;10.32;;;5.90;;
22476;SDS011;65006;51.698;-0.292;2023-04-15T09:04:48;10.60;;;5.10;;
22476;SDS011;65006;51.698;-0.292;2023-04-15T09:07:14;6.57;;;4.05;;
22476;SDS011;65006;51.698;-0.292;2023-04-15T09:09:42;6.22;;;4.30;;
22476;SDS011;65006;51.698;-0.292;2023-04-15T09:12:09;6.75;;;4.80;;
22476;SDS011;65006;51.698;-0.292;2023-04-15T09:14:35;7.00;;;4.47;;
22476;SDS011;65006;51.698;-0.292;2023-04-15T09:17:03;6.05;;;4.03;;
22476;SDS011;65006;51.698;-0.292;2023-04-15T09:19:30;7.22;;;4.45;;
22476;SDS011;65006;51.698;-0.292;2023-04-15T09:21:58;8.40;;;5.32;;
22476;SDS011;65006;51.698;-0.292;2023-04-15T09:24:25;4.97;;;4.32;;
22476;SDS011;65006;51.698;-0.292;2023-04-15T09:26:58;9.05;;;4.93;;
22476;SDS011;65006;51.698;-0.292;2023-04-15T09:31:52;8.82;;;4.90;;
22476;SDS011;65006;51.698;-0.292;2023-04-15T09:34:18;10.90;;;5.15;;
22476;SDS011;65006;51.698;-0.292;2023-04-15T09:39:14;6.78;;;4.88;;
22476;SDS011;65006;51.698;-0.292;2023-04-15T09:41:40;6.20;;;5.05;;
22476;SDS011;65006;51.698;-0.292;2023-04-15T09:44:07;7.38;;;5.85;;
22476;SDS011;65006;51.698;-0.292;2023-04-15T09:46:46;9.23;;;5.28;;
22476;SDS011;65006;51.698;-0.292;2023-04-15T09:49:12;9.32;;;5.18;;
22476;SDS011;65006;51.698;-0.292;2023-04-15T09:51:40;8.55;;;5.07;;
22476;SDS011;65006;51.698;-0.292;2023-04-15T09:54:06;7.03;;;4.63;;
22476;SDS011;65006;51.698;-0.292;2023-04-15T09:56:35;7.07;;;4.80;;
22476;SDS011;65006;51.698;-0.292;2023-04-15T09:59:05;11.02;;;5.20;;
22476;SDS011;65006;51.698;-0.292;2023-04-15T10:01:31;9.40;;;5.68;;
22476;SDS011;65006;51.698;-0.292;2023-04-15T10:03:58;6.90;;;4.63;;
22476;SDS011;65006;51.698;-0.292;2023-04-15T10:06:27;6.68;;;4.60;;
22476;SDS011;65006;51.698;-0.292;2023-04-15T10:08:54;9.52;;;4.30;;
22476;SDS011;65006;51.698;-0.292;2023-04-15T10:11:21;6.28;;;4.50;;
22476;SDS011;65006;51.698;-0.292;2023-04-15T10:13:48;7.57;;;4.40;;
22476;SDS011;65006;51.698;-0.292;2023-04-15T10:16:15;6.63;;;4.00;;
22476;SDS011;65006;51.698;-0.292;2023-04-15T10:21:08;8.68;;;4.57;;
22476;SDS011;65006;51.698;-0.292;2023-04-15T10:23:34;7.10;;;4.40;;
22476;SDS011;65006;51.698;-0.292;2023-04-15T10:26:01;7.35;;;4.43;;
22476;SDS011;65006;51.698;-0.292;2023-04-15T10:28:30;8.35;;;5.03;;
22476;SDS011;65006;51.698;-0.292;2023-04-15T10:30:56;5.55;;;4.07;;
22476;SDS011;65006;51.698;-0.292;2023-04-15T10:33:23;7.45;;;4.55;;
22476;SDS011;65006;51.698;-0.292;2023-04-15T10:35:50;5.07;;;4.22;;
22476;SDS011;65006;51.698;-0.292;2023-04-15T10:43:38;6.32;;;4.10;;
22476;SDS011;65006;51.698;-0.292;2023-04-15T10:46:05;4.97;;;3.83;;
22476;SDS011;65006;51.698;-0.292;2023-04-15T10:48:31;10.40;;;5.40;;
22476;SDS011;65006;51.698;-0.292;2023-04-15T10:50:59;6.82;;;4.10;;
22476;SDS011;65006;51.698;-0.292;2023-04-15T10:53:29;6.63;;;4.32;;
22476;SDS011;65006;51.698;-0.292;2023-04-15T10:55:56;7.57;;;4.40;;
22476;SDS011;65006;51.698;-0.292;2023-04-15T11:00:49;9.98;;;4.95;;
22476;SDS011;65006;51.698;-0.292;2023-04-15T11:03:37;9.27;;;4.90;;
22476;SDS011;65006;51.698;-0.292;2023-04-15T11:06:04;8.15;;;5.07;;
22476;SDS011;65006;51.698;-0.292;2023-04-15T11:10:56;11.05;;;4.68;;
22476;SDS011;65006;51.698;-0.292;2023-04-15T11:13:23;8.00;;;4.80;;
22476;SDS011;65006;51.698;-0.292;2023-04-15T11:15:53;8.93;;;4.70;;
22476;SDS011;65006;51.698;-0.292;2023-04-15T11:18:21;11.07;;;4.55;;
22476;SDS011;65006;51.698;-0.292;2023-04-15T11:20:55;8.13;;;3.95;;
22476;SDS011;65006;51.698;-0.292;2023-04-15T11:23:37;4.82;;;3.33;;
22476;SDS011;65006;51.698;-0.292;2023-04-15T11:26:05;6.00;;;3.50;;
22476;SDS011;65006;51.698;-0.292;2023-04-15T11:28:34;8.80;;;4.05;;
22476;SDS011;65006;51.698;-0.292;2023-04-15T11:33:26;6.57;;;3.72;;
22476;SDS011;65006;51.698;-0.292;2023-04-15T11:35:52;4.88;;;3.97;;
22476;SDS011;65006;51.698;-0.292;2023-04-15T11:38:19;5.93;;;3.83;;
22476;SDS011;65006;51.698;-0.292;2023-04-15T11:40:46;7.43;;;3.70;;
22476;SDS011;65006;51.698;-0.292;2023-04-15T11:43:21;7.75;;;3.55;;
22476;SDS011;65006;51.698;-0.292;2023-04-15T11:48:13;5.90;;;3.42;;
22476;SDS011;65006;51.698;-0.292;2023-04-15T11:50:39;5.38;;;3.67;;
22476;SDS011;65006;51.698;-0.292;2023-04-15T11:53:06;6.07;;;4.22;;
22476;SDS011;65006;51.698;-0.292;2023-04-15T11:55:42;7.30;;;3.75;;
22476;SDS011;65006;51.698;-0.292;2023-04-15T11:58:19;6.70;;;3.58;;
22476;SDS011;65006;51.698;-0.292;2023-04-15T12:00:47;6.47;;;3.88;;
22476;SDS011;65006;51.698;-0.292;2023-04-15T12:03:16;7.63;;;3.53;;
22476;SDS011;65006;51.698;-0.292;2023-04-15T12:11:13;9.10;;;3.20;;
22476;SDS011;65006;51.698;-0.292;2023-04-15T12:13:42;4.38;;;3.30;;
22476;SDS011;65006;51.698;-0.292;2023-04-15T12:16:08;10.55;;;3.85;;
22476;SDS011;65006;51.698;-0.292;2023-04-15T12:18:36;5.82;;;3.60;;
22476;SDS011;65006;51.698;-0.292;2023-04-15T12:21:12;5.78;;;3.45;;
22476;SDS011;65006;51.698;-0.292;2023-04-15T12:23:51;5.65;;;3.20;;
22476;SDS011;65006;51.698;-0.292;2023-04-15T12:26:25;6.55;;;3.30;;
22476;SDS011;65006;51.698;-0.292;2023-04-15T12:28:59;6.65;;;2.70;;
22476;SDS011;65006;51.698;-0.292;2023-04-15T12:31:25;6.18;;;2.70;;
22476;SDS011;65006;51.698;-0.292;2023-04-15T12:33:54;6.80;;;2.60;;
22476;SDS011;65006;51.698;-0.292;2023-04-15T12:36:20;7.28;;;2.97;;
22476;SDS011;65006;51.698;-0.292;2023-04-15T12:38:46;8.85;;;3.00;;
22476;SDS011;65006;51.698;-0.292;2023-04-15T12:41:12;6.95;;;3.10;;
22476;SDS011;65006;51.698;-0.292;2023-04-15T12:43:38;3.90;;;2.47;;
22476;SDS011;65006;51.698;-0.292;2023-04-15T12:46:04;5.35;;;2.75;;
22476;SDS011;65006;51.698;-0.292;2023-04-15T12:48:30;3.22;;;2.30;;
22476;SDS011;65006;51.698;-0.292;2023-04-15T12:50:57;4.93;;;2.15;;
22476;SDS011;65006;51.698;-0.292;2023-04-15T12:53:23;5.03;;;2.60;;
22476;SDS011;65006;51.698;-0.292;2023-04-15T12:55:50;4.10;;;2.47;;
22476;SDS011;65006;51.698;-0.292;2023-04-15T12:58:16;5.72;;;2.50;;
22476;SDS011;65006;51.698;-0.292;2023-04-15T13:00:42;7.07;;;2.10;;
22476;SDS011;65006;51.698;-0.292;2023-04-15T13:03:08;4.18;;;2.03;;
22476;SDS011;65006;51.698;-0.292;2023-04-15T13:05:35;2.78;;;1.88;;
22476;SDS011;65006;51.698;-0.292;2023-04-15T13:08:03;7.00;;;2.95;;
22476;SDS011;65006;51.698;-0.292;2023-04-15T13:10:29;3.83;;;2.08;;
22476;SDS011;65006;51.698;-0.292;2023-04-15T13:12:55;4.15;;;2.22;;
22476;SDS011;65006;51.698;-0.292;2023-04-15T13:15:21;11.77;;;3.10;;
22476;SDS011;65006;51.698;-0.292;2023-04-15T13:17:48;6.45;;;2.50;;
22476;SDS011;65006;51.698;-0.292;2023-04-15T13:22:41;4.78;;;2.70;;
22476;SDS011;65006;51.698;-0.292;2023-04-15T13:25:07;5.10;;;2.60;;
22476;SDS011;65006;51.698;-0.292;2023-04-15T13:27:33;5.53;;;2.70;;
22476;SDS011;65006;51.698;-0.292;2023-04-15T13:29:59;3.53;;;2.15;;
22476;SDS011;65006;51.698;-0.292;2023-04-15T13:32:25;6.10;;;2.35;;
22476;SDS011;65006;51.698;-0.292;2023-04-15T13:34:51;5.95;;;2.10;;
22476;SDS011;65006;51.698;-0.292;2023-04-15T13:37:18;7.00;;;2.00;;
22476;SDS011;65006;51.698;-0.292;2023-04-15T13:39:46;3.10;;;1.83;;
22476;SDS011;65006;51.698;-0.292;2023-04-15T13:42:11;6.78;;;2.05;;
22476;SDS011;65006;51.698;-0.292;2023-04-15T13:44:37;6.97;;;2.20;;
22476;SDS011;65006;51.698;-0.292;2023-04-15T13:47:04;4.15;;;2.60;;
22476;SDS011;65006;51.698;-0.292;2023-04-15T13:51:56;5.50;;;2.67;;
22476;SDS011;65006;51.698;-0.292;2023-04-15T13:54:22;4.35;;;2.42;;
22476;SDS011;65006;51.698;-0.292;2023-04-15T13:56:48;6.05;;;2.05;;
22476;SDS011;65006;51.698;-0.292;2023-04-15T13:59:14;6.35;;;2.30;;
22476;SDS011;65006;51.698;-0.292;2023-04-15T14:01:40;5.80;;;2.10;;
22476;SDS011;65006;51.698;-0.292;2023-04-15T14:04:08;2.42;;;1.80;;
22476;SDS011;65006;51.698;-0.292;2023-04-15T14:06:34;2.45;;;1.50;;
22476;SDS011;65006;51.698;-0.292;2023-04-15T14:09:00;4.05;;;2.13;;
22476;SDS011;65006;51.698;-0.292;2023-04-15T14:11:26;7.47;;;2.20;;
22476;SDS011;65006;51.698;-0.292;2023-04-15T14:13:52;2.55;;;1.90;;
22476;SDS011;65006;51.698;-0.292;2023-04-15T14:16:18;3.63;;;1.65;;
22476;SDS011;65006;51.698;-0.292;2023-04-15T14:18:44;5.60;;;2.45;;
22476;SDS011;65006;51.698;-0.292;2023-04-15T14:21:10;6.32;;;2.65;;
22476;SDS011;65006;51.698;-0.292;2023-04-15T14:23:36;6.47;;;2.53;;
22476;SDS011;65006;51.698;-0.292;2023-04-15T14:26:02;4.22;;;2.22;;
22476;SDS011;65006;51.698;-0.292;2023-04-15T14:28:28;4.68;;;2.13;;
22476;SDS011;65006;51.698;-0.292;2023-04-15T14:30:54;3.60;;;2.15;;
22476;SDS011;65006;51.698;-0.292;2023-04-15T14:33:20;4.95;;;2.50;;
22476;SDS011;65006;51.698;-0.292;2023-04-15T14:35:48;4.35;;;2.60;;
22476;SDS011;65006;51.698;-0.292;2023-04-15T14:38:14;6.00;;;2.22;;
22476;SDS011;65006;51.698;-0.292;2023-04-15T14:40:40;5.80;;;2.40;;
22476;SDS011;65006;51.698;-0.292;2023-04-15T14:43:06;8.65;;;2.78;;
22476;SDS011;65006;51.698;-0.292;2023-04-15T14:45:32;5.22;;;2.33;;
22476;SDS011;65006;51.698;-0.292;2023-04-15T14:47:58;3.28;;;1.98;;
22476;SDS011;65006;51.698;-0.292;2023-04-15T14:50:24;7.22;;;3.20;;
22476;SDS011;65006;51.698;-0.292;2023-04-15T14:52:50;7.45;;;2.25;;
22476;SDS011;65006;51.698;-0.292;2023-04-15T14:55:16;5.82;;;2.25;;
22476;SDS011;65006;51.698;-0.292;2023-04-15T14:57:42;8.68;;;1.83;;
22476;SDS011;65006;51.698;-0.292;2023-04-15T15:00:09;4.28;;;2.45;;
22476;SDS011;65006;51.698;-0.292;2023-04-15T15:02:35;3.85;;;2.35;;
22476;SDS011;65006;51.698;-0.292;2023-04-15T15:05:01;3.38;;;2.33;;
22476;SDS011;65006;51.698;-0.292;2023-04-15T15:07:28;4.28;;;2.00;;
22476;SDS011;65006;51.698;-0.292;2023-04-15T15:09:54;5.63;;;2.22;;
22476;SDS011;65006;51.698;-0.292;2023-04-15T15:12:20;8.90;;;2.30;;
22476;SDS011;65006;51.698;-0.292;2023-04-15T15:14:47;5.57;;;2.40;;
22476;SDS011;65006;51.698;-0.292;2023-04-15T15:17:13;5.43;;;2.40;;
22476;SDS011;65006;51.698;-0.292;2023-04-15T15:19:39;4.22;;;1.90;;
22476;SDS011;65006;51.698;-0.292;2023-04-15T15:22:05;5.45;;;2.20;;
22476;SDS011;65006;51.698;-0.292;2023-04-15T15:24:31;9.93;;;2.92;;
22476;SDS011;65006;51.698;-0.292;2023-04-15T15:26:57;4.25;;;2.40;;